Hinton, Missouri
Current Conditions -  °F | °C
As of 9:54 PM on Saturday 25 Oct 2014 (Local Time) from KCOU Reporting Station
Clear Clear  
Wind Chill: 18°   Ceiling: Unl
Heat Index: 18°   Visibility: 10mi
Dew Point: 11°   Wind: 6mph
Humidity: 65%   Direction: 60°ENE
Pressure: 30.04"   Gusts: NA
Location:  39.0235°N, 92.2896°W
Report Text: KCOU 260254Z AUTO 06005KT 10SM CLR 18/11 A3004 RMK AO2 SLP166 T01780111 53006 $
Loading
Personal Weather Stations






























Interactive Weather Map
Tropical Storm Tracking
New forecast layout! Learn more

10-Day Weather Forecast

Advertisements
Track Severe Weather on mobile